sensor_id;sensor_type;location;lat;lon;timestamp;pressure;altitude;pressure_sealevel;temperature
66604;BMP280;53460;39.612;8.822;2024-02-14T00:00:12;98016.38;;;8.78
66604;BMP280;53460;39.612;8.822;2024-02-14T00:02:44;98012.03;;;8.65
66604;BMP280;53460;39.612;8.822;2024-02-14T00:05:10;98042.00;;;8.68
66604;BMP280;53460;39.612;8.822;2024-02-14T00:07:39;98037.09;;;8.82
66604;BMP280;53460;39.612;8.822;2024-02-14T00:10:05;98014.22;;;8.97
66604;BMP280;53460;39.612;8.822;2024-02-14T00:12:32;97980.25;;;9.19
66604;BMP280;53460;39.612;8.822;2024-02-14T00:14:58;97954.69;;;9.36
66604;BMP280;53460;39.612;8.822;2024-02-14T00:17:24;97932.22;;;9.41
66604;BMP280;53460;39.612;8.822;2024-02-14T00:19:50;97922.75;;;9.34
66604;BMP280;53460;39.612;8.822;2024-02-14T00:22:16;97917.47;;;9.36
66604;BMP280;53460;39.612;8.822;2024-02-14T00:24:42;97915.25;;;9.26
66604;BMP280;53460;39.612;8.822;2024-02-14T00:27:07;97917.81;;;9.22
66604;BMP280;53460;39.612;8.822;2024-02-14T00:29:33;97918.59;;;9.27
66604;BMP280;53460;39.612;8.822;2024-02-14T00:32:00;97918.06;;;9.32
66604;BMP280;53460;39.612;8.822;2024-02-14T00:34:25;97919.09;;;9.19
66604;BMP280;53460;39.612;8.822;2024-02-14T00:36:51;97929.50;;;9.11
66604;BMP280;53460;39.612;8.822;2024-02-14T00:39:17;97939.97;;;9.05
66604;BMP280;53460;39.612;8.822;2024-02-14T00:41:42;97944.66;;;9.32
66604;BMP280;53460;39.612;8.822;2024-02-14T00:44:08;97922.97;;;9.44
66604;BMP280;53460;39.612;8.822;2024-02-14T00:46:33;97907.34;;;9.58
66604;BMP280;53460;39.612;8.822;2024-02-14T00:48:59;97912.69;;;9.60
66604;BMP280;53460;39.612;8.822;2024-02-14T00:51:25;97904.75;;;9.62
66604;BMP280;53460;39.612;8.822;2024-02-14T00:53:52;97895.63;;;9.39
66604;BMP280;53460;39.612;8.822;2024-02-14T00:56:17;97900.78;;;9.33
66604;BMP280;53460;39.612;8.822;2024-02-14T00:58:43;97918.09;;;9.34
66604;BMP280;53460;39.612;8.822;2024-02-14T01:01:09;97919.50;;;9.37
66604;BMP280;53460;39.612;8.822;2024-02-14T01:03:34;97916.09;;;9.35
66604;BMP280;53460;39.612;8.822;2024-02-14T01:06:00;97912.16;;;9.36
66604;BMP280;53460;39.612;8.822;2024-02-14T01:08:26;97925.41;;;9.34
66604;BMP280;53460;39.612;8.822;2024-02-14T01:10:52;97921.63;;;9.43
66604;BMP280;53460;39.612;8.822;2024-02-14T01:13:18;97920.22;;;9.40
66604;BMP280;53460;39.612;8.822;2024-02-14T01:15:44;97922.06;;;9.33
66604;BMP280;53460;39.612;8.822;2024-02-14T01:18:09;97924.88;;;9.39
66604;BMP280;53460;39.612;8.822;2024-02-14T01:20:35;97919.16;;;9.23
66604;BMP280;53460;39.612;8.822;2024-02-14T01:23:02;97921.94;;;9.27
66604;BMP280;53460;39.612;8.822;2024-02-14T01:25:28;97920.66;;;9.30
66604;BMP280;53460;39.612;8.822;2024-02-14T01:27:54;97918.22;;;9.38
66604;BMP280;53460;39.612;8.822;2024-02-14T01:30:20;97919.84;;;9.54
66604;BMP280;53460;39.612;8.822;2024-02-14T01:32:46;97917.44;;;9.64
66604;BMP280;53460;39.612;8.822;2024-02-14T01:35:11;97918.09;;;9.64
66604;BMP280;53460;39.612;8.822;2024-02-14T01:37:38;97919.53;;;9.69
66604;BMP280;53460;39.612;8.822;2024-02-14T01:40:04;97908.25;;;9.71
66604;BMP280;53460;39.612;8.822;2024-02-14T01:42:30;97898.81;;;9.64
66604;BMP280;53460;39.612;8.822;2024-02-14T01:44:55;97904.16;;;9.66
66604;BMP280;53460;39.612;8.822;2024-02-14T01:47:21;97909.50;;;9.66
66604;BMP280;53460;39.612;8.822;2024-02-14T01:49:47;97924.06;;;9.63
66604;BMP280;53460;39.612;8.822;2024-02-14T01:52:13;97926.06;;;9.62
66604;BMP280;53460;39.612;8.822;2024-02-14T01:54:39;97926.09;;;9.64
66604;BMP280;53460;39.612;8.822;2024-02-14T01:57:06;97928.59;;;9.56
66604;BMP280;53460;39.612;8.822;2024-02-14T01:59:33;97929.81;;;9.53
66604;BMP280;53460;39.612;8.822;2024-02-14T02:02:00;97925.13;;;9.52
66604;BMP280;53460;39.612;8.822;2024-02-14T02:04:26;97931.56;;;9.42
66604;BMP280;53460;39.612;8.822;2024-02-14T02:06:52;97947.47;;;9.38
66604;BMP280;53460;39.612;8.822;2024-02-14T02:09:22;97954.38;;;9.50
66604;BMP280;53460;39.612;8.822;2024-02-14T02:11:49;97962.78;;;9.40
66604;BMP280;53460;39.612;8.822;2024-02-14T02:14:15;97957.44;;;9.38
66604;BMP280;53460;39.612;8.822;2024-02-14T02:16:42;97972.50;;;9.29
66604;BMP280;53460;39.612;8.822;2024-02-14T02:19:08;97961.13;;;9.27
66604;BMP280;53460;39.612;8.822;2024-02-14T02:21:38;97967.94;;;9.34
66604;BMP280;53460;39.612;8.822;2024-02-14T02:24:04;97984.75;;;9.40
66604;BMP280;53460;39.612;8.822;2024-02-14T02:26:30;97974.06;;;9.38
66604;BMP280;53460;39.612;8.822;2024-02-14T02:28:56;97979.38;;;9.38
66604;BMP280;53460;39.612;8.822;2024-02-14T02:31:22;97983.34;;;9.37
66604;BMP280;53460;39.612;8.822;2024-02-14T02:33:48;97997.00;;;9.26
66604;BMP280;53460;39.612;8.822;2024-02-14T02:36:14;98015.25;;;9.11
66604;BMP280;53460;39.612;8.822;2024-02-14T02:38:41;98012.50;;;9.07
66604;BMP280;53460;39.612;8.822;2024-02-14T02:41:07;98012.72;;;9.15
66604;BMP280;53460;39.612;8.822;2024-02-14T02:43:33;98029.13;;;9.08
66604;BMP280;53460;39.612;8.822;2024-02-14T02:45:59;98026.81;;;9.20
66604;BMP280;53460;39.612;8.822;2024-02-14T02:48:25;98026.47;;;9.08
66604;BMP280;53460;39.612;8.822;2024-02-14T02:50:51;98023.34;;;9.15
66604;BMP280;53460;39.612;8.822;2024-02-14T02:53:17;98034.97;;;9.02
66604;BMP280;53460;39.612;8.822;2024-02-14T02:55:43;98048.00;;;8.92
66604;BMP280;53460;39.612;8.822;2024-02-14T02:58:09;98054.94;;;9.03
66604;BMP280;53460;39.612;8.822;2024-02-14T03:00:35;98063.81;;;9.12
66604;BMP280;53460;39.612;8.822;2024-02-14T03:03:00;98063.22;;;9.15
66604;BMP280;53460;39.612;8.822;2024-02-14T03:05:28;98050.78;;;9.22
66604;BMP280;53460;39.612;8.822;2024-02-14T03:07:54;98046.97;;;9.29
66604;BMP280;53460;39.612;8.822;2024-02-14T03:10:22;98044.13;;;9.23
66604;BMP280;53460;39.612;8.822;2024-02-14T03:12:48;98064.75;;;9.23
66604;BMP280;53460;39.612;8.822;2024-02-14T03:15:14;98080.81;;;9.27
66604;BMP280;53460;39.612;8.822;2024-02-14T03:17:40;98080.81;;;9.27
66604;BMP280;53460;39.612;8.822;2024-02-14T03:20:08;98082.03;;;9.24
66604;BMP280;53460;39.612;8.822;2024-02-14T03:22:42;98104.16;;;9.30
66604;BMP280;53460;39.612;8.822;2024-02-14T03:25:16;98088.16;;;9.28
66604;BMP280;53460;39.612;8.822;2024-02-14T03:27:42;98110.13;;;9.29
66604;BMP280;53460;39.612;8.822;2024-02-14T03:30:11;98109.03;;;9.38
66604;BMP280;53460;39.612;8.822;2024-02-14T03:32:38;98108.75;;;9.54
66604;BMP280;53460;39.612;8.822;2024-02-14T03:35:04;98100.09;;;9.53
66604;BMP280;53460;39.612;8.822;2024-02-14T03:37:31;98111.81;;;9.68
66604;BMP280;53460;39.612;8.822;2024-02-14T03:39:57;98113.31;;;9.75
66604;BMP280;53460;39.612;8.822;2024-02-14T03:42:23;98109.97;;;9.74
66604;BMP280;53460;39.612;8.822;2024-02-14T03:44:48;98110.53;;;9.99
66604;BMP280;53460;39.612;8.822;2024-02-14T03:47:14;98085.94;;;10.00
66604;BMP280;53460;39.612;8.822;2024-02-14T03:49:40;98065.28;;;9.99
66604;BMP280;53460;39.612;8.822;2024-02-14T03:52:06;98059.22;;;9.96
66604;BMP280;53460;39.612;8.822;2024-02-14T03:54:36;98062.13;;;10.06
66604;BMP280;53460;39.612;8.822;2024-02-14T03:57:02;98035.47;;;10.06
66604;BMP280;53460;39.612;8.822;2024-02-14T03:59:30;98029.06;;;10.18
66604;BMP280;53460;39.612;8.822;2024-02-14T04:01:56;98023.16;;;10.21
66604;BMP280;53460;39.612;8.822;2024-02-14T04:04:23;98009.19;;;10.23
66604;BMP280;53460;39.612;8.822;2024-02-14T04:06:49;97993.97;;;10.27
66604;BMP280;53460;39.612;8.822;2024-02-14T04:09:14;97984.19;;;10.38
66604;BMP280;53460;39.612;8.822;2024-02-14T04:11:40;97969.69;;;10.45
66604;BMP280;53460;39.612;8.822;2024-02-14T04:14:06;97961.03;;;10.47
66604;BMP280;53460;39.612;8.822;2024-02-14T04:16:32;97953.72;;;10.45
66604;BMP280;53460;39.612;8.822;2024-02-14T04:18:58;97947.13;;;10.50
66604;BMP280;53460;39.612;8.822;2024-02-14T04:21:24;97946.34;;;10.44
66604;BMP280;53460;39.612;8.822;2024-02-14T04:23:49;97956.38;;;10.45
66604;BMP280;53460;39.612;8.822;2024-02-14T04:26:21;97959.78;;;10.50
66604;BMP280;53460;39.612;8.822;2024-02-14T04:28:47;97963.75;;;10.49
66604;BMP280;53460;39.612;8.822;2024-02-14T04:31:12;97971.66;;;10.43
66604;BMP280;53460;39.612;8.822;2024-02-14T04:33:38;97980.94;;;10.42
66604;BMP280;53460;39.612;8.822;2024-02-14T04:36:04;97980.81;;;10.35
66604;BMP280;53460;39.612;8.822;2024-02-14T04:38:31;97991.44;;;10.33
66604;BMP280;53460;39.612;8.822;2024-02-14T04:40:57;97999.19;;;10.23
66604;BMP280;53460;39.612;8.822;2024-02-14T04:43:25;98019.09;;;10.18
66604;BMP280;53460;39.612;8.822;2024-02-14T04:45:52;98021.69;;;10.16
66604;BMP280;53460;39.612;8.822;2024-02-14T04:48:19;98038.16;;;10.06
66604;BMP280;53460;39.612;8.822;2024-02-14T04:50:45;98057.34;;;10.01
66604;BMP280;53460;39.612;8.822;2024-02-14T04:53:10;98060.38;;;9.89
66604;BMP280;53460;39.612;8.822;2024-02-14T04:55:36;98068.91;;;9.84
66604;BMP280;53460;39.612;8.822;2024-02-14T04:58:02;98071.28;;;9.71
66604;BMP280;53460;39.612;8.822;2024-02-14T05:00:27;98080.91;;;9.57
66604;BMP280;53460;39.612;8.822;2024-02-14T05:02:53;98077.03;;;9.36
66604;BMP280;53460;39.612;8.822;2024-02-14T05:05:19;98068.03;;;9.21
66604;BMP280;53460;39.612;8.822;2024-02-14T05:07:46;98065.41;;;9.23
66604;BMP280;53460;39.612;8.822;2024-02-14T05:10:11;98057.13;;;9.11
66604;BMP280;53460;39.612;8.822;2024-02-14T05:12:37;98042.09;;;9.20
66604;BMP280;53460;39.612;8.822;2024-02-14T05:15:03;98039.63;;;9.28
66604;BMP280;53460;39.612;8.822;2024-02-14T05:17:29;98037.44;;;9.20
66604;BMP280;53460;39.612;8.822;2024-02-14T05:19:55;98049.88;;;8.88
66604;BMP280;53460;39.612;8.822;2024-02-14T05:22:22;98043.34;;;8.93
66604;BMP280;53460;39.612;8.822;2024-02-14T05:24:48;98046.91;;;9.01
66604;BMP280;53460;39.612;8.822;2024-02-14T05:27:13;98048.94;;;9.03
66604;BMP280;53460;39.612;8.822;2024-02-14T05:29:39;98056.34;;;9.06
66604;BMP280;53460;39.612;8.822;2024-02-14T05:32:05;98054.13;;;8.99
66604;BMP280;53460;39.612;8.822;2024-02-14T05:34:31;98050.31;;;9.04
66604;BMP280;53460;39.612;8.822;2024-02-14T05:36:56;98047.59;;;9.02
66604;BMP280;53460;39.612;8.822;2024-02-14T05:39:22;98060.09;;;8.73
66604;BMP280;53460;39.612;8.822;2024-02-14T05:41:48;98063.94;;;8.92
66604;BMP280;53460;39.612;8.822;2024-02-14T05:44:14;98062.19;;;9.01
66604;BMP280;53460;39.612;8.822;2024-02-14T05:46:40;98062.94;;;9.05
66604;BMP280;53460;39.612;8.822;2024-02-14T05:49:06;98058.91;;;9.02
66604;BMP280;53460;39.612;8.822;2024-02-14T05:51:32;98057.13;;;8.87
66604;BMP280;53460;39.612;8.822;2024-02-14T05:53:58;98066.03;;;8.72
66604;BMP280;53460;39.612;8.822;2024-02-14T05:56:23;98064.28;;;8.80
66604;BMP280;53460;39.612;8.822;2024-02-14T05:58:49;98076.78;;;8.76
66604;BMP280;53460;39.612;8.822;2024-02-14T06:01:14;98077.66;;;8.82
66604;BMP280;53460;39.612;8.822;2024-02-14T06:03:43;98053.88;;;8.89
66604;BMP280;53460;39.612;8.822;2024-02-14T06:06:09;98054.66;;;8.93
66604;BMP280;53460;39.612;8.822;2024-02-14T06:08:34;98050.47;;;8.86
66604;BMP280;53460;39.612;8.822;2024-02-14T06:11:00;98023.75;;;8.80
66604;BMP280;53460;39.612;8.822;2024-02-14T06:13:25;98002.09;;;8.66
66604;BMP280;53460;39.612;8.822;2024-02-14T06:15:51;97979.25;;;8.80
66604;BMP280;53460;39.612;8.822;2024-02-14T06:18:17;97961.41;;;8.85
66604;BMP280;53460;39.612;8.822;2024-02-14T06:20:42;97953.25;;;9.03
66604;BMP280;53460;39.612;8.822;2024-02-14T06:23:08;97952.13;;;8.86
66604;BMP280;53460;39.612;8.822;2024-02-14T06:25:34;97939.34;;;9.04
66604;BMP280;53460;39.612;8.822;2024-02-14T06:27:59;97939.47;;;9.10
66604;BMP280;53460;39.612;8.822;2024-02-14T06:30:25;97935.41;;;9.07
66604;BMP280;53460;39.612;8.822;2024-02-14T06:32:50;97944.47;;;8.98
66604;BMP280;53460;39.612;8.822;2024-02-14T06:35:16;97945.97;;;9.05
66604;BMP280;53460;39.612;8.822;2024-02-14T06:37:44;97949.06;;;9.22
66604;BMP280;53460;39.612;8.822;2024-02-14T06:40:11;97964.59;;;9.31
66604;BMP280;53460;39.612;8.822;2024-02-14T06:42:36;98003.81;;;9.33
66604;BMP280;53460;39.612;8.822;2024-02-14T06:45:02;98037.06;;;9.32
66604;BMP280;53460;39.612;8.822;2024-02-14T06:47:28;98072.78;;;9.25
66604;BMP280;53460;39.612;8.822;2024-02-14T06:49:55;98086.13;;;9.27
66604;BMP280;53460;39.612;8.822;2024-02-14T06:52:21;98120.69;;;9.27
66604;BMP280;53460;39.612;8.822;2024-02-14T06:54:47;98164.66;;;9.30
66604;BMP280;53460;39.612;8.822;2024-02-14T06:57:14;98213.81;;;9.53
66604;BMP280;53460;39.612;8.822;2024-02-14T06:59:39;98276.25;;;9.73
66604;BMP280;53460;39.612;8.822;2024-02-14T07:02:05;98355.44;;;9.73
66604;BMP280;53460;39.612;8.822;2024-02-14T07:04:31;98404.41;;;9.64
66604;BMP280;53460;39.612;8.822;2024-02-14T07:07:03;98454.72;;;9.77
66604;BMP280;53460;39.612;8.822;2024-02-14T07:09:29;98485.22;;;9.96
66604;BMP280;53460;39.612;8.822;2024-02-14T07:11:54;98546.72;;;10.26
66604;BMP280;53460;39.612;8.822;2024-02-14T07:14:23;98689.34;;;13.93
66604;BMP280;53460;39.612;8.822;2024-02-14T07:16:48;99602.53;;;16.47
66604;BMP280;53460;39.612;8.822;2024-02-14T07:19:14;100367.09;;;17.08
66604;BMP280;53460;39.612;8.822;2024-02-14T07:21:39;100640.50;;;16.64
66604;BMP280;53460;39.612;8.822;2024-02-14T07:24:05;100720.09;;;15.33
66604;BMP280;53460;39.612;8.822;2024-02-14T07:26:31;100685.38;;;14.62
66604;BMP280;53460;39.612;8.822;2024-02-14T07:28:57;100620.78;;;14.29
66604;BMP280;53460;39.612;8.822;2024-02-14T07:31:22;100662.34;;;15.83
66604;BMP280;53460;39.612;8.822;2024-02-14T07:33:48;100729.25;;;16.42
66604;BMP280;53460;39.612;8.822;2024-02-14T07:36:14;100823.59;;;18.53
66604;BMP280;53460;39.612;8.822;2024-02-14T07:38:41;100975.34;;;20.28
66604;BMP280;53460;39.612;8.822;2024-02-14T07:41:08;101091.09;;;22.31
66604;BMP280;53460;39.612;8.822;2024-02-14T07:43:34;101113.91;;;22.92
66604;BMP280;53460;39.612;8.822;2024-02-14T07:45:59;101136.28;;;24.41
66604;BMP280;53460;39.612;8.822;2024-02-14T07:48:25;101158.28;;;24.59
66604;BMP280;53460;39.612;8.822;2024-02-14T07:50:51;101155.75;;;24.84
66604;BMP280;53460;39.612;8.822;2024-02-14T07:53:16;101156.13;;;22.55
66604;BMP280;53460;39.612;8.822;2024-02-14T07:55:42;101152.13;;;23.96
66604;BMP280;53460;39.612;8.822;2024-02-14T07:58:07;101159.16;;;25.95
66604;BMP280;53460;39.612;8.822;2024-02-14T08:00:33;101165.00;;;25.39
66604;BMP280;53460;39.612;8.822;2024-02-14T08:02:59;101166.78;;;26.76
66604;BMP280;53460;39.612;8.822;2024-02-14T08:05:24;101179.75;;;27.09
66604;BMP280;53460;39.612;8.822;2024-02-14T08:07:50;101170.16;;;27.08
66604;BMP280;53460;39.612;8.822;2024-02-14T08:10:16;101162.69;;;26.44
66604;BMP280;53460;39.612;8.822;2024-02-14T08:12:41;101166.66;;;27.40
66604;BMP280;53460;39.612;8.822;2024-02-14T08:15:08;101171.38;;;29.86
66604;BMP280;53460;39.612;8.822;2024-02-14T08:17:34;101176.88;;;30.33
66604;BMP280;53460;39.612;8.822;2024-02-14T08:20:01;101188.03;;;31.36
66604;BMP280;53460;39.612;8.822;2024-02-14T08:22:26;101184.19;;;30.04
66604;BMP280;53460;39.612;8.822;2024-02-14T08:24:52;101179.97;;;31.26
66604;BMP280;53460;39.612;8.822;2024-02-14T08:27:18;101177.13;;;29.68
66604;BMP280;53460;39.612;8.822;2024-02-14T08:29:43;101161.56;;;29.48
66604;BMP280;53460;39.612;8.822;2024-02-14T08:32:09;101157.25;;;30.52
66604;BMP280;53460;39.612;8.822;2024-02-14T08:34:34;101166.69;;;31.65
66604;BMP280;53460;39.612;8.822;2024-02-14T08:37:00;101158.75;;;30.44
66604;BMP280;53460;39.612;8.822;2024-02-14T08:39:26;101161.81;;;29.81
66604;BMP280;53460;39.612;8.822;2024-02-14T08:41:51;101155.09;;;31.28
66604;BMP280;53460;39.612;8.822;2024-02-14T08:44:18;101152.28;;;30.19
66604;BMP280;53460;39.612;8.822;2024-02-14T08:46:43;101164.81;;;32.15
66604;BMP280;53460;39.612;8.822;2024-02-14T08:49:10;101159.31;;;32.15
66604;BMP280;53460;39.612;8.822;2024-02-14T08:51:36;101154.31;;;31.93
66604;BMP280;53460;39.612;8.822;2024-02-14T08:54:02;101155.66;;;32.75
66604;BMP280;53460;39.612;8.822;2024-02-14T08:56:34;101152.19;;;32.23
66604;BMP280;53460;39.612;8.822;2024-02-14T08:59:03;101142.59;;;32.73
66604;BMP280;53460;39.612;8.822;2024-02-14T09:01:29;101142.81;;;33.13
66604;BMP280;53460;39.612;8.822;2024-02-14T09:03:55;101148.72;;;33.46
66604;BMP280;53460;39.612;8.822;2024-02-14T09:06:21;101154.28;;;31.64
66604;BMP280;53460;39.612;8.822;2024-02-14T09:08:47;101150.31;;;32.69
66604;BMP280;53460;39.612;8.822;2024-02-14T09:11:13;101151.50;;;32.76
66604;BMP280;53460;39.612;8.822;2024-02-14T09:13:39;101154.66;;;32.86
66604;BMP280;53460;39.612;8.822;2024-02-14T09:16:08;101151.00;;;31.87
66604;BMP280;53460;39.612;8.822;2024-02-14T09:18:34;101151.13;;;33.79
66604;BMP280;53460;39.612;8.822;2024-02-14T09:21:00;101154.94;;;33.46
66604;BMP280;53460;39.612;8.822;2024-02-14T09:23:29;101165.53;;;32.41
66604;BMP280;53460;39.612;8.822;2024-02-14T09:25:55;101153.06;;;33.16
66604;BMP280;53460;39.612;8.822;2024-02-14T09:28:22;101161.13;;;33.90
66604;BMP280;53460;39.612;8.822;2024-02-14T09:30:48;101169.28;;;32.02
66604;BMP280;53460;39.612;8.822;2024-02-14T09:33:14;101173.41;;;33.54
66604;BMP280;53460;39.612;8.822;2024-02-14T09:35:40;101173.09;;;34.06
66604;BMP280;53460;39.612;8.822;2024-02-14T09:38:12;101175.78;;;34.28
66604;BMP280;53460;39.612;8.822;2024-02-14T09:40:40;101181.88;;;33.91
66604;BMP280;53460;39.612;8.822;2024-02-14T09:43:19;101180.06;;;33.16
66604;BMP280;53460;39.612;8.822;2024-02-14T09:45:51;101184.22;;;32.40
66604;BMP280;53460;39.612;8.822;2024-02-14T09:48:18;101189.63;;;32.17
66604;BMP280;53460;39.612;8.822;2024-02-14T09:50:45;101199.13;;;32.51
66604;BMP280;53460;39.612;8.822;2024-02-14T09:53:14;101206.44;;;33.81
66604;BMP280;53460;39.612;8.822;2024-02-14T09:55:41;101208.06;;;33.51
66604;BMP280;53460;39.612;8.822;2024-02-14T09:58:07;101207.28;;;32.57
66604;BMP280;53460;39.612;8.822;2024-02-14T10:00:34;101209.00;;;34.30
66604;BMP280;53460;39.612;8.822;2024-02-14T10:02:59;101210.94;;;33.49
66604;BMP280;53460;39.612;8.822;2024-02-14T10:05:25;101174.66;;;29.48
66604;BMP280;53460;39.612;8.822;2024-02-14T10:07:51;101164.56;;;27.55
66604;BMP280;53460;39.612;8.822;2024-02-14T10:10:17;101145.16;;;25.30
66604;BMP280;53460;39.612;8.822;2024-02-14T10:12:42;101131.94;;;24.18
66604;BMP280;53460;39.612;8.822;2024-02-14T10:15:08;101122.00;;;22.86
66604;BMP280;53460;39.612;8.822;2024-02-14T10:17:34;101118.28;;;22.67
66604;BMP280;53460;39.612;8.822;2024-02-14T10:20:01;101118.25;;;23.09
66604;BMP280;53460;39.612;8.822;2024-02-14T10:22:37;101117.56;;;22.67
66604;BMP280;53460;39.612;8.822;2024-02-14T10:25:04;101127.44;;;22.86
66604;BMP280;53460;39.612;8.822;2024-02-14T10:27:40;101128.81;;;22.89
66604;BMP280;53460;39.612;8.822;2024-02-14T10:30:08;101127.28;;;22.40
66604;BMP280;53460;39.612;8.822;2024-02-14T10:32:39;101113.81;;;22.86
66604;BMP280;53460;39.612;8.822;2024-02-14T10:35:14;101115.03;;;22.39
66604;BMP280;53460;39.612;8.822;2024-02-14T10:37:41;101106.53;;;22.21
66604;BMP280;53460;39.612;8.822;2024-02-14T10:40:07;101103.44;;;22.76
66604;BMP280;53460;39.612;8.822;2024-02-14T10:42:34;101116.28;;;21.66
66604;BMP280;53460;39.612;8.822;2024-02-14T10:45:01;101102.81;;;22.42
66604;BMP280;53460;39.612;8.822;2024-02-14T10:47:31;101103.38;;;21.98
66604;BMP280;53460;39.612;8.822;2024-02-14T10:50:05;101102.03;;;22.73
66604;BMP280;53460;39.612;8.822;2024-02-14T10:52:32;101094.09;;;22.47
66604;BMP280;53460;39.612;8.822;2024-02-14T10:55:02;101096.44;;;22.27
66604;BMP280;53460;39.612;8.822;2024-02-14T10:57:28;101095.97;;;22.39
66604;BMP280;53460;39.612;8.822;2024-02-14T10:59:55;101093.88;;;22.35
66604;BMP280;53460;39.612;8.822;2024-02-14T11:02:22;101090.63;;;22.43
66604;BMP280;53460;39.612;8.822;2024-02-14T11:04:47;101088.44;;;22.35
66604;BMP280;53460;39.612;8.822;2024-02-14T11:07:16;101081.97;;;22.17
66604;BMP280;53460;39.612;8.822;2024-02-14T11:09:42;101087.56;;;21.89
66604;BMP280;53460;39.612;8.822;2024-02-14T11:12:08;101081.59;;;21.96
66604;BMP280;53460;39.612;8.822;2024-02-14T11:14:35;101079.00;;;22.02
66604;BMP280;53460;39.612;8.822;2024-02-14T11:17:02;101073.56;;;22.40
66604;BMP280;53460;39.612;8.822;2024-02-14T11:19:31;101078.53;;;21.80
66604;BMP280;53460;39.612;8.822;2024-02-14T11:22:21;101075.22;;;21.84
66604;BMP280;53460;39.612;8.822;2024-02-14T11:24:48;101074.56;;;21.85
66604;BMP280;53460;39.612;8.822;2024-02-14T11:27:17;101077.47;;;21.95
66604;BMP280;53460;39.612;8.822;2024-02-14T11:29:52;101073.19;;;22.18
66604;BMP280;53460;39.612;8.822;2024-02-14T11:32:18;101072.50;;;21.84
66604;BMP280;53460;39.612;8.822;2024-02-14T11:34:56;101071.31;;;21.29
66604;BMP280;53460;39.612;8.822;2024-02-14T11:37:29;101057.41;;;22.10
66604;BMP280;53460;39.612;8.822;2024-02-14T11:39:56;101057.41;;;22.10
66604;BMP280;53460;39.612;8.822;2024-02-14T11:42:23;101058.06;;;22.09
66604;BMP280;53460;39.612;8.822;2024-02-14T11:44:49;101054.69;;;22.10
66604;BMP280;53460;39.612;8.822;2024-02-14T11:47:15;101059.59;;;22.18
66604;BMP280;53460;39.612;8.822;2024-02-14T11:49:41;101053.81;;;21.68
66604;BMP280;53460;39.612;8.822;2024-02-14T11:52:11;101047.50;;;22.27
66604;BMP280;53460;39.612;8.822;2024-02-14T11:54:37;101044.56;;;20.59
66604;BMP280;53460;39.612;8.822;2024-02-14T11:57:03;101040.44;;;21.44
66604;BMP280;53460;39.612;8.822;2024-02-14T11:59:29;101042.00;;;20.93
66604;BMP280;53460;39.612;8.822;2024-02-14T12:01:54;101039.00;;;21.39
66604;BMP280;53460;39.612;8.822;2024-02-14T12:04:24;101041.03;;;20.81
66604;BMP280;53460;39.612;8.822;2024-02-14T12:06:50;101029.38;;;21.34
66604;BMP280;53460;39.612;8.822;2024-02-14T12:09:15;101036.28;;;21.09
66604;BMP280;53460;39.612;8.822;2024-02-14T12:11:41;101035.81;;;20.61
66604;BMP280;53460;39.612;8.822;2024-02-14T12:14:11;101034.31;;;20.56
66604;BMP280;53460;39.612;8.822;2024-02-14T12:16:37;101037.06;;;21.14
66604;BMP280;53460;39.612;8.822;2024-02-14T12:19:09;101024.28;;;20.90
66604;BMP280;53460;39.612;8.822;2024-02-14T12:21:36;101024.06;;;21.40
66604;BMP280;53460;39.612;8.822;2024-02-14T12:24:04;101025.97;;;21.35
66604;BMP280;53460;39.612;8.822;2024-02-14T12:26:30;101026.19;;;21.44
66604;BMP280;53460;39.612;8.822;2024-02-14T12:28:57;101019.63;;;20.93
66604;BMP280;53460;39.612;8.822;2024-02-14T12:31:23;101019.44;;;21.15
66604;BMP280;53460;39.612;8.822;2024-02-14T12:33:49;101022.16;;;21.15
66604;BMP280;53460;39.612;8.822;2024-02-14T12:36:14;101022.44;;;20.99
66604;BMP280;53460;39.612;8.822;2024-02-14T12:38:40;101020.97;;;21.24
66604;BMP280;53460;39.612;8.822;2024-02-14T12:41:06;101024.06;;;20.80
66604;BMP280;53460;39.612;8.822;2024-02-14T12:43:31;101030.66;;;21.01
66604;BMP280;53460;39.612;8.822;2024-02-14T12:45:57;101033.91;;;20.95
66604;BMP280;53460;39.612;8.822;2024-02-14T12:48:24;101028.06;;;20.77
66604;BMP280;53460;39.612;8.822;2024-02-14T12:50:53;101032.84;;;20.79
66604;BMP280;53460;39.612;8.822;2024-02-14T12:53:20;101027.09;;;20.94
66604;BMP280;53460;39.612;8.822;2024-02-14T12:55:46;101027.63;;;21.17
66604;BMP280;53460;39.612;8.822;2024-02-14T12:58:13;101031.63;;;21.14
66604;BMP280;53460;39.612;8.822;2024-02-14T13:00:38;101024.00;;;20.78
66604;BMP280;53460;39.612;8.822;2024-02-14T13:03:04;101030.00;;;20.47
66604;BMP280;53460;39.612;8.822;2024-02-14T13:05:30;101036.34;;;20.29
66604;BMP280;53460;39.612;8.822;2024-02-14T13:07:56;101031.25;;;20.97
66604;BMP280;53460;39.612;8.822;2024-02-14T13:10:22;101036.13;;;20.47
66604;BMP280;53460;39.612;8.822;2024-02-14T13:12:48;101027.69;;;20.63
66604;BMP280;53460;39.612;8.822;2024-02-14T13:15:15;101025.53;;;21.13
66604;BMP280;53460;39.612;8.822;2024-02-14T13:17:41;101038.38;;;20.83
66604;BMP280;53460;39.612;8.822;2024-02-14T13:20:07;101032.22;;;20.54
66604;BMP280;53460;39.612;8.822;2024-02-14T13:22:33;101033.00;;;20.85
66604;BMP280;53460;39.612;8.822;2024-02-14T13:24:59;101035.13;;;21.18
66604;BMP280;53460;39.612;8.822;2024-02-14T13:27:26;101029.88;;;21.26
66604;BMP280;53460;39.612;8.822;2024-02-14T13:29:51;101035.34;;;20.71
66604;BMP280;53460;39.612;8.822;2024-02-14T13:32:17;101031.31;;;20.72
66604;BMP280;53460;39.612;8.822;2024-02-14T13:34:43;101033.59;;;20.81
66604;BMP280;53460;39.612;8.822;2024-02-14T13:37:09;101032.88;;;20.53
66604;BMP280;53460;39.612;8.822;2024-02-14T13:39:35;101030.84;;;20.27
66604;BMP280;53460;39.612;8.822;2024-02-14T13:42:01;101035.63;;;20.27
66604;BMP280;53460;39.612;8.822;2024-02-14T13:44:27;101034.84;;;20.50
66604;BMP280;53460;39.612;8.822;2024-02-14T13:46:53;101018.78;;;20.07
66604;BMP280;53460;39.612;8.822;2024-02-14T13:49:19;101028.78;;;20.80
66604;BMP280;53460;39.612;8.822;2024-02-14T13:51:49;101025.69;;;20.91
66604;BMP280;53460;39.612;8.822;2024-02-14T13:54:17;101024.16;;;20.84
66604;BMP280;53460;39.612;8.822;2024-02-14T13:56:43;101025.78;;;20.95
66604;BMP280;53460;39.612;8.822;2024-02-14T13:59:08;101020.78;;;20.30
66604;BMP280;53460;39.612;8.822;2024-02-14T14:01:34;101018.69;;;20.03
66604;BMP280;53460;39.612;8.822;2024-02-14T14:03:59;101031.97;;;20.44